createdAt,value
2022-10-20T00:01:44.976Z,78.08
2022-10-20T00:04:11.443Z,78.52
2022-10-20T00:06:37.993Z,78.89
2022-10-20T00:09:05.429Z,79.33
2022-10-20T00:11:32.059Z,79.61
2022-10-20T00:13:59.617Z,79.66
2022-10-20T00:16:28.602Z,80.05
2022-10-20T00:18:55.915Z,80.00
2022-10-20T00:21:24.999Z,80.34
2022-10-20T00:23:51.876Z,80.05
2022-10-20T00:26:24.019Z,79.82
2022-10-20T00:28:51.419Z,79.41
2022-10-20T00:31:18.979Z,79.60
2022-10-20T00:33:46.011Z,79.61
2022-10-20T00:36:14.184Z,79.67
2022-10-20T00:38:40.670Z,79.52
2022-10-20T00:41:07.845Z,79.17
2022-10-20T00:43:48.919Z,78.94
2022-10-20T00:46:18.471Z,78.79
2022-10-20T00:48:48.377Z,78.80
2022-10-20T00:51:16.774Z,78.76
2022-10-20T00:53:45.331Z,78.42
2022-10-20T00:56:12.643Z,78.75
2022-10-20T00:58:39.399Z,78.82
2022-10-20T01:01:05.913Z,78.81
2022-10-20T01:03:38.289Z,79.45
2022-10-20T01:06:04.945Z,79.92
2022-10-20T01:08:31.538Z,80.39
2022-10-20T01:11:16.459Z,80.76
2022-10-20T01:13:59.629Z,80.76
2022-10-20T01:16:38.977Z,80.62
2022-10-20T01:19:47.586Z,80.37
2022-10-20T01:22:42.440Z,79.85
2022-10-20T01:25:25.544Z,79.39
2022-10-20T01:28:22.828Z,79.20
2022-10-20T01:30:54.166Z,79.31
2022-10-20T01:33:29.705Z,79.61
2022-10-20T01:36:04.280Z,79.61
2022-10-20T01:38:33.228Z,79.92
2022-10-20T01:41:02.756Z,80.13
2022-10-20T01:43:32.880Z,80.48
2022-10-20T01:46:00.119Z,80.11
2022-10-20T01:48:29.844Z,80.03
2022-10-20T01:50:56.387Z,80.35
2022-10-20T01:53:22.850Z,80.41
2022-10-20T01:55:54.391Z,80.79
2022-10-20T01:58:23.860Z,80.83
2022-10-20T02:00:51.740Z,80.23
2022-10-20T02:03:29.927Z,80.15
2022-10-20T02:06:05.873Z,80.27
2022-10-20T02:08:46.006Z,80.43
2022-10-20T02:11:22.517Z,80.77
2022-10-20T02:13:49.993Z,80.90
2022-10-20T02:16:22.316Z,80.89
2022-10-20T02:18:48.977Z,81.12
2022-10-20T02:25:03.135Z,81.77
2022-10-20T02:27:33.709Z,81.66
2022-10-20T02:30:12.228Z,81.68
2022-10-20T02:32:40.978Z,81.32
2022-10-20T02:35:10.633Z,81.11
2022-10-20T02:37:37.244Z,81.14
2022-10-20T02:40:04.601Z,81.00
2022-10-20T02:42:31.143Z,80.97
2022-10-20T02:44:57.710Z,80.71
2022-10-20T02:47:24.186Z,80.45
2022-10-20T02:49:50.670Z,80.99
2022-10-20T02:52:17.125Z,81.07
2022-10-20T02:54:43.691Z,80.91
2022-10-20T02:57:10.214Z,80.78
2022-10-20T02:59:36.674Z,80.28
2022-10-20T03:02:03.707Z,80.16
2022-10-20T03:04:30.336Z,79.93
2022-10-20T03:06:56.786Z,79.74
2022-10-20T03:09:23.276Z,79.56
2022-10-20T03:11:49.732Z,79.46
2022-10-20T03:14:16.215Z,79.26
2022-10-20T03:16:42.722Z,79.09
2022-10-20T03:19:11.558Z,79.11
2022-10-20T03:21:38.548Z,79.08
2022-10-20T03:24:05.348Z,79.39
2022-10-20T03:26:31.815Z,79.39
2022-10-20T03:28:58.527Z,79.77
2022-10-20T03:31:25.022Z,80.11
2022-10-20T03:33:51.513Z,80.26
2022-10-20T03:36:18.025Z,79.93
2022-10-20T03:38:44.490Z,79.92
2022-10-20T03:41:11.319Z,80.06
2022-10-20T03:43:41.178Z,80.51
2022-10-20T03:46:14.983Z,80.85
2022-10-20T03:52:37.617Z,82.05
2022-10-20T03:55:04.758Z,82.22
2022-10-20T03:57:31.198Z,82.75
2022-10-20T03:59:57.740Z,83.25
2022-10-20T04:02:39.381Z,83.99
2022-10-20T04:05:06.593Z,84.45
2022-10-20T04:07:33.219Z,84.70
2022-10-20T04:10:02.203Z,84.97
2022-10-20T04:12:28.762Z,85.33
2022-10-20T04:14:55.274Z,85.45
2022-10-20T04:17:21.796Z,85.62
2022-10-20T04:19:48.245Z,85.69
2022-10-20T04:22:14.735Z,85.78
2022-10-20T04:24:41.286Z,85.90
2022-10-20T04:27:07.952Z,86.24
2022-10-20T04:29:34.773Z,86.14
2022-10-20T04:32:01.228Z,86.68
2022-10-20T04:34:27.719Z,86.74
2022-10-20T04:36:54.187Z,87.02
2022-10-20T04:39:20.859Z,86.90
2022-10-20T04:41:47.312Z,86.81
2022-10-20T04:44:13.796Z,86.69
2022-10-20T04:46:40.217Z,86.95
2022-10-20T04:49:06.667Z,86.73
2022-10-20T04:51:33.097Z,86.84
2022-10-20T04:53:59.544Z,86.68
2022-10-20T04:56:25.982Z,86.50
2022-10-20T04:58:56.889Z,86.05
2022-10-20T05:01:25.967Z,86.15
2022-10-20T05:03:52.457Z,86.46
2022-10-20T05:06:19.805Z,86.55
2022-10-20T05:08:49.129Z,86.36
2022-10-20T05:11:16.478Z,85.97
2022-10-20T05:13:43.261Z,86.32
2022-10-20T05:16:10.178Z,85.97
2022-10-20T05:18:37.170Z,85.95
2022-10-20T05:21:17.599Z,86.41
2022-10-20T05:23:44.563Z,86.96
2022-10-20T05:26:16.886Z,87.10
2022-10-20T05:28:45.319Z,87.32
2022-10-20T05:31:11.770Z,87.45
2022-10-20T05:33:38.666Z,87.69
2022-10-20T05:36:13.848Z,87.68
2022-10-20T05:38:41.566Z,87.70
2022-10-20T05:41:13.236Z,87.84
2022-10-20T05:43:39.682Z,87.97
2022-10-20T05:46:06.883Z,88.00
2022-10-20T05:48:33.558Z,88.06
2022-10-20T05:51:13.555Z,88.12
2022-10-20T05:53:41.679Z,88.41
2022-10-20T05:56:09.958Z,88.46
2022-10-20T05:58:36.915Z,88.80
2022-10-20T06:01:19.240Z,88.80
2022-10-20T06:03:50.625Z,88.69
2022-10-20T06:06:18.189Z,88.97
2022-10-20T06:08:45.222Z,88.94
2022-10-20T06:11:13.525Z,88.56
2022-10-20T06:13:39.944Z,88.16
2022-10-20T06:16:11.629Z,88.12
2022-10-20T06:18:38.808Z,88.02
2022-10-20T06:21:07.529Z,87.90
2022-10-20T06:23:34.365Z,87.32
2022-10-20T06:26:06.746Z,88.62
2022-10-20T06:28:34.741Z,88.69
2022-10-20T06:31:01.634Z,89.32
2022-10-20T06:33:30.127Z,89.81
2022-10-20T06:36:03.085Z,90.16
2022-10-20T06:38:29.511Z,90.70
2022-10-20T06:40:56.057Z,91.02
2022-10-20T06:43:22.793Z,91.20
2022-10-20T06:46:00.647Z,91.56
2022-10-20T06:48:27.778Z,92.08
2022-10-20T06:50:58.322Z,92.39
2022-10-20T06:53:25.711Z,92.66
2022-10-20T06:55:59.360Z,93.21
2022-10-20T06:58:26.879Z,93.22
2022-10-20T07:01:08.325Z,93.58
2022-10-20T07:03:37.912Z,93.69
2022-10-20T07:06:05.634Z,93.76
2022-10-20T07:08:34.264Z,94.18
2022-10-20T07:11:06.555Z,94.08
2022-10-20T07:13:34.221Z,94.18
2022-10-20T07:16:01.072Z,94.61
2022-10-20T07:18:28.902Z,94.69
2022-10-20T07:21:00.090Z,94.60
2022-10-20T07:23:27.680Z,94.59
2022-10-20T07:26:04.708Z,94.56
2022-10-20T07:28:31.703Z,94.48
2022-10-20T07:31:02.900Z,94.04
2022-10-20T07:33:29.329Z,94.06
2022-10-20T07:35:55.756Z,93.93
2022-10-20T07:38:22.158Z,94.05
2022-10-20T07:40:48.564Z,93.58
2022-10-20T07:43:14.997Z,93.46
2022-10-20T07:45:41.462Z,93.81
2022-10-20T07:48:09.790Z,93.24
2022-10-20T07:50:37.218Z,93.08
2022-10-20T07:53:06.269Z,92.99
2022-10-20T07:55:38.619Z,92.05
2022-10-20T07:58:05.838Z,92.25
2022-10-20T08:00:32.366Z,92.31
2022-10-20T08:02:58.828Z,91.90
2022-10-20T08:05:25.409Z,91.88
2022-10-20T08:07:52.253Z,91.29
2022-10-20T08:10:18.683Z,91.63
2022-10-20T08:12:45.172Z,91.21
2022-10-20T08:15:11.658Z,91.15
2022-10-20T08:17:40.899Z,91.00
2022-10-20T08:20:21.357Z,90.77
2022-10-20T08:22:50.060Z,90.45
2022-10-20T08:25:16.813Z,89.96
2022-10-20T08:27:43.215Z,90.31
2022-10-20T08:30:23.545Z,89.97
2022-10-20T08:32:52.616Z,89.88
2022-10-20T08:35:19.810Z,89.90
2022-10-20T08:37:46.286Z,89.03
2022-10-20T08:40:16.709Z,88.84
2022-10-20T08:42:45.149Z,88.90
2022-10-20T08:45:15.924Z,88.47
2022-10-20T08:47:43.218Z,88.14
2022-10-20T08:50:12.566Z,88.07
2022-10-20T08:52:40.874Z,88.12
2022-10-20T08:55:07.983Z,87.44
2022-10-20T08:57:36.485Z,87.55
2022-10-20T09:00:21.478Z,86.96
2022-10-20T09:02:49.326Z,86.98
2022-10-20T09:05:19.128Z,86.70
2022-10-20T09:07:48.470Z,86.46
2022-10-20T09:10:33.980Z,86.06
2022-10-20T09:13:01.354Z,85.95
2022-10-20T09:15:28.499Z,85.31
2022-10-20T09:18:09.195Z,85.03
2022-10-20T09:20:44.703Z,85.13
2022-10-20T09:23:39.518Z,84.58
2022-10-20T09:26:02.532Z,84.52
2022-10-20T09:28:42.959Z,84.25
2022-10-20T09:31:33.174Z,83.87
2022-10-20T09:33:59.939Z,84.07
2022-10-20T09:36:30.934Z,84.01
2022-10-20T09:38:57.630Z,83.79
2022-10-20T09:41:28.025Z,82.94
2022-10-20T09:44:01.507Z,82.33
2022-10-20T09:46:37.639Z,82.41
2022-10-20T09:49:04.902Z,81.70
2022-10-20T09:51:31.403Z,81.49
2022-10-20T09:54:03.925Z,80.40
2022-10-20T09:56:35.757Z,79.58
2022-10-20T09:59:04.076Z,79.38
2022-10-20T10:01:30.548Z,79.90
2022-10-20T10:04:01.659Z,79.80
2022-10-20T10:06:32.640Z,79.60
2022-10-20T10:09:01.730Z,79.41
2022-10-20T10:11:34.433Z,79.04
2022-10-20T10:14:01.775Z,77.97
2022-10-20T10:16:28.454Z,77.63
2022-10-20T10:18:58.842Z,76.23
2022-10-20T10:21:25.535Z,75.91
2022-10-20T10:24:02.488Z,75.89
2022-10-20T10:26:39.541Z,75.67
2022-10-20T10:29:16.865Z,75.51
2022-10-20T10:31:51.606Z,75.64
2022-10-20T10:34:17.897Z,75.79
2022-10-20T10:36:44.438Z,75.57
2022-10-20T10:39:13.552Z,75.57
2022-10-20T10:42:07.218Z,75.31
2022-10-20T10:44:43.347Z,75.18
2022-10-20T10:47:09.658Z,74.64
2022-10-20T10:50:08.351Z,74.98
2022-10-20T10:53:01.090Z,74.84
2022-10-20T10:55:51.340Z,74.73
2022-10-20T10:58:24.897Z,74.52
2022-10-20T11:01:09.953Z,74.81
2022-10-20T11:03:48.329Z,74.63
2022-10-20T11:06:19.686Z,74.14
2022-10-20T11:09:10.299Z,74.10
2022-10-20T11:11:55.350Z,74.19
2022-10-20T11:14:31.673Z,74.00
2022-10-20T11:17:07.541Z,73.68
2022-10-20T11:20:00.474Z,74.10
2022-10-20T11:22:33.901Z,73.63
2022-10-20T11:25:22.310Z,73.68
2022-10-20T11:27:49.198Z,73.67
2022-10-20T11:30:22.788Z,74.06
2022-10-20T11:33:15.598Z,73.75
2022-10-20T11:35:51.138Z,74.12
2022-10-20T11:38:23.727Z,73.90
2022-10-20T11:40:59.257Z,73.13
2022-10-20T11:43:31.038Z,73.53
2022-10-20T11:45:57.338Z,73.40
2022-10-20T11:48:40.191Z,73.23
2022-10-20T11:51:16.695Z,73.53
2022-10-20T11:54:07.804Z,73.42
2022-10-20T11:57:02.067Z,73.02
2022-10-20T11:59:53.184Z,72.88
2022-10-20T12:02:58.542Z,73.00
2022-10-20T12:05:46.708Z,73.11
2022-10-20T12:08:37.615Z,73.00
2022-10-20T12:11:15.189Z,73.16
2022-10-20T12:13:58.748Z,72.92
2022-10-20T12:16:59.314Z,72.65
2022-10-20T12:19:30.062Z,74.55
2022-10-20T12:22:14.677Z,73.80
2022-10-20T12:24:43.426Z,71.93
2022-10-20T12:27:09.809Z,71.73
2022-10-20T12:29:36.099Z,71.17
2022-10-20T12:32:21.317Z,71.02
2022-10-20T12:34:49.200Z,70.73
2022-10-20T12:37:20.652Z,70.40
2022-10-20T12:39:47.319Z,70.24
2022-10-20T12:42:25.818Z,69.55
2022-10-20T12:44:52.586Z,68.94
2022-10-20T12:47:27.534Z,69.00
2022-10-20T12:50:00.748Z,68.17
2022-10-20T12:52:30.007Z,68.44
2022-10-20T12:55:21.962Z,68.23
2022-10-20T12:57:48.750Z,68.48
2022-10-20T13:00:24.282Z,68.42
2022-10-20T13:02:55.305Z,68.64
2022-10-20T13:05:43.128Z,68.69
2022-10-20T13:08:19.542Z,68.14
2022-10-20T13:10:46.737Z,68.21
2022-10-20T13:13:13.067Z,67.73
2022-10-20T13:15:42.462Z,67.33
2022-10-20T13:18:12.017Z,66.53
2022-10-20T13:20:58.292Z,66.67
2022-10-20T13:23:39.513Z,66.93
2022-10-20T13:26:17.009Z,67.30
2022-10-20T13:28:48.053Z,66.89
2022-10-20T13:31:19.009Z,66.77
2022-10-20T13:34:09.757Z,66.43
2022-10-20T13:36:46.157Z,66.77
2022-10-20T13:39:22.353Z,66.31
2022-10-20T13:42:03.942Z,66.43
2022-10-20T13:44:56.372Z,65.47
2022-10-20T13:47:34.274Z,65.69
2022-10-20T13:50:06.116Z,65.92
2022-10-20T13:52:41.272Z,66.06
2022-10-20T13:55:08.339Z,66.56
2022-10-20T13:57:35.600Z,66.65
2022-10-20T14:00:26.769Z,66.94
2022-10-20T14:02:54.829Z,66.82
2022-10-20T14:05:22.582Z,66.50
2022-10-20T14:07:50.641Z,66.53
2022-10-20T14:10:22.480Z,66.63
2022-10-20T14:12:48.934Z,66.69
2022-10-20T14:15:23.371Z,66.55
2022-10-20T14:18:02.491Z,66.47
2022-10-20T14:20:30.186Z,66.99
2022-10-20T14:22:58.870Z,66.48
2022-10-20T14:25:26.472Z,66.51
2022-10-20T14:27:54.341Z,66.21
2022-10-20T14:30:21.001Z,65.86
2022-10-20T14:32:48.929Z,65.88
2022-10-20T14:35:39.421Z,65.87
2022-10-20T14:38:14.588Z,66.07
2022-10-20T14:40:41.278Z,66.36
2022-10-20T14:43:17.424Z,66.59
2022-10-20T14:45:59.983Z,66.72
2022-10-20T14:48:32.404Z,66.81
2022-10-20T14:50:58.884Z,66.76
2022-10-20T14:53:34.436Z,66.77
2022-10-20T14:56:02.570Z,66.85
2022-10-20T14:58:36.888Z,67.10
2022-10-20T15:01:31.861Z,67.16
2022-10-20T15:04:04.697Z,67.21
2022-10-20T15:06:31.531Z,67.32
2022-10-20T15:08:58.099Z,67.46
2022-10-20T15:11:26.493Z,67.57
2022-10-20T15:13:54.429Z,67.47
2022-10-20T15:16:39.801Z,67.79
2022-10-20T15:19:35.918Z,68.04
2022-10-20T15:22:10.302Z,68.04
2022-10-20T15:24:37.436Z,68.14
2022-10-20T15:27:04.470Z,68.34
2022-10-20T15:29:31.768Z,68.65
2022-10-20T15:31:58.681Z,68.75
2022-10-20T15:34:25.573Z,69.04
2022-10-20T15:36:51.994Z,68.68
2022-10-20T15:39:18.416Z,68.94
2022-10-20T15:41:45.663Z,69.04
2022-10-20T15:44:21.284Z,69.07
2022-10-20T15:46:48.924Z,69.30
2022-10-20T15:49:15.514Z,69.35
2022-10-20T15:51:44.484Z,69.22
2022-10-20T15:54:19.349Z,69.08
2022-10-20T15:56:45.956Z,69.93
2022-10-20T15:59:12.359Z,69.36
2022-10-20T16:01:38.864Z,69.04
2022-10-20T16:04:28.614Z,69.07
2022-10-20T16:06:59.067Z,69.19
2022-10-20T16:09:26.885Z,69.12
2022-10-20T16:11:53.315Z,69.30
2022-10-20T16:14:19.824Z,69.75
2022-10-20T16:16:46.248Z,69.62
2022-10-20T16:19:14.463Z,69.62
2022-10-20T16:21:41.366Z,69.58
2022-10-20T16:24:07.926Z,69.64
2022-10-20T16:26:34.350Z,69.93
2022-10-20T16:29:00.787Z,69.87
2022-10-20T16:31:27.313Z,69.78
2022-10-20T16:33:53.712Z,69.78
2022-10-20T16:36:21.576Z,69.94
2022-10-20T16:38:48.091Z,69.77
2022-10-20T16:41:15.681Z,69.82
2022-10-20T16:43:44.631Z,69.56
2022-10-20T16:46:12.521Z,69.58
2022-10-20T16:48:41.432Z,69.70
2022-10-20T16:51:11.573Z,69.56
2022-10-20T16:53:38.043Z,69.57
2022-10-20T16:56:05.083Z,69.57
2022-10-20T16:58:31.538Z,69.57
2022-10-20T17:01:08.745Z,69.45
2022-10-20T17:03:36.046Z,69.30
2022-10-20T17:06:05.395Z,69.43
2022-10-20T17:08:32.749Z,69.20
2022-10-20T17:11:01.583Z,69.02
2022-10-20T17:13:28.790Z,68.84
2022-10-20T17:15:55.856Z,68.75
2022-10-20T17:18:23.750Z,68.81
2022-10-20T17:20:54.174Z,68.65
2022-10-20T17:23:22.365Z,68.63
2022-10-20T17:25:50.015Z,68.27
2022-10-20T17:28:17.026Z,68.30
2022-10-20T17:30:44.763Z,68.33
2022-10-20T17:33:11.673Z,68.30
2022-10-20T17:35:38.432Z,68.23
2022-10-20T17:38:05.579Z,68.35
2022-10-20T17:40:38.560Z,68.13
2022-10-20T17:43:05.038Z,68.39
2022-10-20T17:45:33.898Z,67.96
2022-10-20T17:48:02.822Z,68.18
2022-10-20T17:50:29.240Z,68.18
2022-10-20T17:52:55.666Z,67.96
2022-10-20T17:55:22.084Z,67.95
2022-10-20T17:57:48.484Z,68.02
2022-10-20T18:00:22.783Z,67.94
2022-10-20T18:02:53.372Z,68.15
2022-10-20T18:05:20.879Z,68.10
2022-10-20T18:07:47.341Z,68.19
2022-10-20T18:10:14.859Z,68.04
2022-10-20T18:12:42.283Z,68.07
2022-10-20T18:15:08.952Z,67.63
2022-10-20T18:17:35.479Z,67.78
2022-10-20T18:20:01.964Z,67.70
2022-10-20T18:22:28.362Z,67.39
2022-10-20T18:24:54.793Z,67.45
2022-10-20T18:27:22.148Z,67.26
2022-10-20T18:29:48.573Z,66.91
2022-10-20T18:32:15.050Z,66.65
2022-10-20T18:34:43.452Z,66.37
2022-10-20T18:37:09.982Z,66.32
2022-10-20T18:39:36.463Z,66.14
2022-10-20T18:42:02.883Z,66.13
2022-10-20T18:47:01.808Z,66.01
2022-10-20T18:49:28.294Z,66.24
2022-10-20T18:51:54.750Z,66.02
2022-10-20T18:54:23.196Z,65.98
2022-10-20T18:56:49.665Z,65.96
2022-10-20T18:59:17.197Z,65.79
2022-10-20T19:01:44.021Z,65.91
2022-10-20T19:04:11.574Z,65.99
2022-10-20T19:06:42.121Z,65.66
2022-10-20T19:09:11.714Z,65.49
2022-10-20T19:11:39.519Z,65.31
2022-10-20T19:14:09.469Z,64.99
2022-10-20T19:16:37.030Z,64.90
2022-10-20T19:19:06.118Z,65.06
2022-10-20T19:21:33.463Z,64.72
2022-10-20T19:24:20.304Z,64.73
2022-10-20T19:26:56.934Z,64.68
2022-10-20T19:29:34.987Z,64.72
2022-10-20T19:32:02.395Z,65.01
2022-10-20T19:34:32.754Z,64.82
2022-10-20T19:36:59.516Z,65.03
2022-10-20T19:39:29.581Z,65.27
2022-10-20T19:41:58.041Z,65.82
2022-10-20T19:44:24.541Z,65.84
2022-10-20T19:46:53.922Z,66.79
2022-10-20T19:49:21.277Z,67.69
2022-10-20T19:51:47.773Z,67.80
2022-10-20T19:54:14.807Z,67.79
2022-10-20T19:56:41.366Z,68.27
2022-10-20T19:59:08.615Z,68.68
2022-10-20T20:01:35.562Z,68.79
2022-10-20T20:04:02.011Z,68.83
2022-10-20T20:06:28.820Z,68.82
2022-10-20T20:09:01.692Z,69.08
2022-10-20T20:11:30.879Z,69.57
2022-10-20T20:14:01.440Z,70.14
2022-10-20T20:16:29.126Z,70.22
2022-10-20T20:18:55.666Z,70.39
2022-10-20T20:21:22.973Z,70.76
2022-10-20T20:23:59.837Z,71.23
2022-10-20T20:26:32.901Z,72.03
2022-10-20T20:28:59.815Z,72.31
2022-10-20T20:31:27.072Z,72.90
2022-10-20T20:33:54.174Z,74.07
2022-10-20T20:36:20.985Z,75.10
2022-10-20T20:38:47.427Z,75.53
2022-10-20T20:41:16.520Z,76.14
2022-10-20T20:43:45.279Z,77.57
2022-10-20T20:46:14.216Z,78.31
2022-10-20T20:48:40.674Z,79.14
2022-10-20T20:51:07.119Z,79.52
2022-10-20T20:53:37.369Z,80.21
2022-10-20T20:56:06.170Z,80.67
2022-10-20T20:58:32.872Z,81.40
2022-10-20T21:01:04.302Z,81.89
2022-10-20T21:03:31.539Z,82.46
2022-10-20T21:06:05.587Z,82.81
2022-10-20T21:08:33.640Z,83.11
2022-10-20T21:11:14.898Z,83.69
2022-10-20T21:13:42.340Z,84.07
2022-10-20T21:16:26.535Z,84.52
2022-10-20T21:18:55.340Z,84.68
2022-10-20T21:21:27.202Z,84.93
2022-10-20T21:23:54.089Z,85.35
2022-10-20T21:26:21.881Z,85.47
2022-10-20T21:28:49.135Z,85.87
2022-10-20T21:31:18.486Z,86.41
2022-10-20T21:33:45.798Z,86.68
2022-10-20T21:36:14.620Z,86.99
2022-10-20T21:38:42.255Z,87.25
2022-10-20T21:41:11.430Z,87.40
2022-10-20T21:43:40.755Z,87.52
2022-10-20T21:46:08.965Z,87.88
2022-10-20T21:51:14.585Z,88.22
2022-10-20T21:53:41.572Z,88.55
2022-10-20T21:56:08.425Z,88.73
2022-10-20T21:58:35.684Z,88.73
2022-10-20T22:01:13.098Z,89.02
2022-10-20T22:03:40.048Z,88.93
2022-10-20T22:06:08.300Z,89.06
2022-10-20T22:08:39.447Z,89.50
2022-10-20T22:11:08.337Z,89.67
2022-10-20T22:13:34.888Z,89.76
2022-10-20T22:16:01.461Z,90.26
2022-10-20T22:18:28.173Z,90.18
2022-10-20T22:20:54.606Z,90.33
2022-10-20T22:23:21.028Z,90.60
2022-10-20T22:25:51.515Z,90.63
2022-10-20T22:28:19.049Z,90.96
2022-10-20T22:30:45.458Z,91.05
2022-10-20T22:33:11.871Z,91.47
2022-10-20T22:35:38.270Z,91.35
2022-10-20T22:38:04.693Z,91.65
2022-10-20T22:40:31.088Z,91.77
2022-10-20T22:42:57.560Z,92.02
2022-10-20T22:45:23.971Z,91.93
2022-10-20T22:47:50.447Z,92.27
2022-10-20T22:50:16.923Z,92.57
2022-10-20T22:52:43.339Z,92.65
2022-10-20T22:55:09.756Z,92.82
2022-10-20T22:57:36.169Z,93.20
2022-10-20T23:00:04.549Z,93.48
2022-10-20T23:02:30.951Z,93.84
2022-10-20T23:04:57.366Z,93.77
2022-10-20T23:07:24.184Z,93.95
2022-10-20T23:09:50.704Z,94.25
2022-10-20T23:12:17.128Z,94.14
2022-10-20T23:14:43.553Z,94.70
2022-10-20T23:17:09.961Z,94.92
2022-10-20T23:19:36.357Z,95.04
2022-10-20T23:22:02.768Z,95.12
2022-10-20T23:24:29.192Z,95.32
2022-10-20T23:26:57.504Z,95.34
2022-10-20T23:29:24.247Z,96.01
2022-10-20T23:31:50.673Z,96.05
2022-10-20T23:34:17.143Z,96.23
2022-10-20T23:36:43.574Z,96.29
2022-10-20T23:39:10.036Z,96.63
2022-10-20T23:41:36.449Z,96.91
2022-10-20T23:44:02.877Z,96.97
2022-10-20T23:46:32.274Z,97.01
2022-10-20T23:48:59.260Z,97.63
2022-10-20T23:51:25.727Z,97.78
2022-10-20T23:53:52.324Z,98.25
2022-10-20T23:56:18.775Z,98.62
2022-10-20T23:58:45.187Z,98.90
